sensor_id;sensor_type;location;lat;lon;timestamp;pressure;altitude;pressure_sealevel;temperature;humidity
10946;BME280;5525;42.648;23.368;2023-05-16T00:01:55;94427.03;;;14.26;100.00
10946;BME280;5525;42.648;23.368;2023-05-16T00:04:22;94414.59;;;14.25;100.00
10946;BME280;5525;42.648;23.368;2023-05-16T00:06:50;94427.25;;;14.21;100.00
10946;BME280;5525;42.648;23.368;2023-05-16T00:09:17;94422.25;;;14.23;100.00
10946;BME280;5525;42.648;23.368;2023-05-16T00:11:44;94423.13;;;14.12;100.00
10946;BME280;5525;42.648;23.368;2023-05-16T00:14:12;94417.72;;;14.12;100.00
10946;BME280;5525;42.648;23.368;2023-05-16T00:16:39;94408.84;;;14.15;100.00
10946;BME280;5525;42.648;23.368;2023-05-16T00:19:06;94402.47;;;14.07;100.00
10946;BME280;5525;42.648;23.368;2023-05-16T00:21:33;94417.91;;;14.19;100.00
10946;BME280;5525;42.648;23.368;2023-05-16T00:24:03;94390.50;;;13.93;100.00
10946;BME280;5525;42.648;23.368;2023-05-16T00:26:30;94420.16;;;14.17;100.00
10946;BME280;5525;42.648;23.368;2023-05-16T00:28:56;94413.06;;;14.12;100.00
10946;BME280;5525;42.648;23.368;2023-05-16T00:31:23;94405.47;;;14.02;100.00
10946;BME280;5525;42.648;23.368;2023-05-16T00:33:50;94413.63;;;14.02;100.00
10946;BME280;5525;42.648;23.368;2023-05-16T00:36:16;94412.72;;;13.98;100.00
10946;BME280;5525;42.648;23.368;2023-05-16T00:38:43;94407.50;;;14.05;100.00
10946;BME280;5525;42.648;23.368;2023-05-16T00:41:11;94407.03;;;14.03;100.00
10946;BME280;5525;42.648;23.368;2023-05-16T00:43:38;94404.41;;;14.07;100.00
10946;BME280;5525;42.648;23.368;2023-05-16T00:46:05;94400.47;;;14.04;100.00
10946;BME280;5525;42.648;23.368;2023-05-16T00:48:32;94387.84;;;14.12;100.00
10946;BME280;5525;42.648;23.368;2023-05-16T00:50:59;94379.28;;;14.10;100.00
10946;BME280;5525;42.648;23.368;2023-05-16T00:53:27;94383.41;;;14.04;100.00
10946;BME280;5525;42.648;23.368;2023-05-16T00:55:54;94381.66;;;13.96;100.00
10946;BME280;5525;42.648;23.368;2023-05-16T00:58:23;94377.88;;;14.00;100.00
10946;BME280;5525;42.648;23.368;2023-05-16T01:00:50;94376.47;;;13.91;100.00
10946;BME280;5525;42.648;23.368;2023-05-16T01:03:17;94377.88;;;13.85;100.00
10946;BME280;5525;42.648;23.368;2023-05-16T01:05:44;94373.66;;;13.87;100.00
10946;BME280;5525;42.648;23.368;2023-05-16T01:08:12;94374.03;;;13.86;100.00
10946;BME280;5525;42.648;23.368;2023-05-16T01:10:43;94380.09;;;13.79;100.00
10946;BME280;5525;42.648;23.368;2023-05-16T01:13:18;94368.09;;;13.80;100.00
10946;BME280;5525;42.648;23.368;2023-05-16T01:15:55;94364.94;;;13.78;100.00
10946;BME280;5525;42.648;23.368;2023-05-16T01:18:31;94367.75;;;13.82;100.00
10946;BME280;5525;42.648;23.368;2023-05-16T01:21:05;94360.47;;;13.86;100.00
10946;BME280;5525;42.648;23.368;2023-05-16T01:23:40;94370.91;;;13.84;100.00
10946;BME280;5525;42.648;23.368;2023-05-16T01:26:18;94362.47;;;13.89;100.00
10946;BME280;5525;42.648;23.368;2023-05-16T01:28:47;94364.78;;;13.87;100.00
10946;BME280;5525;42.648;23.368;2023-05-16T01:31:15;94359.16;;;13.80;100.00
10946;BME280;5525;42.648;23.368;2023-05-16T01:33:42;94347.53;;;13.79;100.00
10946;BME280;5525;42.648;23.368;2023-05-16T01:36:13;94348.13;;;13.73;100.00
10946;BME280;5525;42.648;23.368;2023-05-16T01:38:45;94341.91;;;13.72;100.00
10946;BME280;5525;42.648;23.368;2023-05-16T01:41:20;94341.06;;;13.68;100.00
10946;BME280;5525;42.648;23.368;2023-05-16T01:43:52;94330.56;;;13.67;100.00
10946;BME280;5525;42.648;23.368;2023-05-16T01:46:25;94330.34;;;13.59;100.00
10946;BME280;5525;42.648;23.368;2023-05-16T01:48:59;94329.25;;;13.61;100.00
10946;BME280;5525;42.648;23.368;2023-05-16T01:51:29;94336.22;;;13.62;100.00
10946;BME280;5525;42.648;23.368;2023-05-16T01:54:04;94330.19;;;13.52;100.00
10946;BME280;5525;42.648;23.368;2023-05-16T01:56:33;94326.16;;;13.46;100.00
10946;BME280;5525;42.648;23.368;2023-05-16T01:59:03;94332.81;;;13.65;100.00
10946;BME280;5525;42.648;23.368;2023-05-16T02:01:31;94335.78;;;13.59;100.00
10946;BME280;5525;42.648;23.368;2023-05-16T02:03:57;94322.06;;;13.52;100.00
10946;BME280;5525;42.648;23.368;2023-05-16T02:06:24;94328.25;;;13.53;100.00
10946;BME280;5525;42.648;23.368;2023-05-16T02:08:51;94325.22;;;13.54;100.00
10946;BME280;5525;42.648;23.368;2023-05-16T02:11:18;94328.53;;;13.64;100.00
10946;BME280;5525;42.648;23.368;2023-05-16T02:13:46;94327.03;;;13.66;100.00
10946;BME280;5525;42.648;23.368;2023-05-16T02:16:13;94323.00;;;13.60;100.00
10946;BME280;5525;42.648;23.368;2023-05-16T02:18:40;94321.72;;;13.70;100.00
10946;BME280;5525;42.648;23.368;2023-05-16T02:21:06;94311.03;;;13.61;100.00
10946;BME280;5525;42.648;23.368;2023-05-16T02:23:33;94306.47;;;13.65;100.00
10946;BME280;5525;42.648;23.368;2023-05-16T02:26:00;94311.38;;;13.59;100.00
10946;BME280;5525;42.648;23.368;2023-05-16T02:28:26;94306.19;;;13.70;100.00
10946;BME280;5525;42.648;23.368;2023-05-16T02:30:58;94308.13;;;13.70;100.00
10946;BME280;5525;42.648;23.368;2023-05-16T02:33:26;94307.09;;;13.74;100.00
10946;BME280;5525;42.648;23.368;2023-05-16T02:35:54;94306.19;;;13.86;100.00
10946;BME280;5525;42.648;23.368;2023-05-16T02:38:20;94305.81;;;13.87;100.00
10946;BME280;5525;42.648;23.368;2023-05-16T02:40:47;94312.50;;;13.90;100.00
10946;BME280;5525;42.648;23.368;2023-05-16T02:43:14;94313.09;;;13.83;100.00
10946;BME280;5525;42.648;23.368;2023-05-16T02:45:41;94319.50;;;13.91;100.00
10946;BME280;5525;42.648;23.368;2023-05-16T02:48:09;94309.84;;;13.93;100.00
10946;BME280;5525;42.648;23.368;2023-05-16T02:50:36;94309.13;;;13.96;100.00
10946;BME280;5525;42.648;23.368;2023-05-16T02:53:04;94300.81;;;14.05;100.00
10946;BME280;5525;42.648;23.368;2023-05-16T02:55:31;94299.88;;;13.97;100.00
10946;BME280;5525;42.648;23.368;2023-05-16T02:57:58;94278.06;;;13.94;100.00
10946;BME280;5525;42.648;23.368;2023-05-16T03:00:25;94291.59;;;14.09;100.00
10946;BME280;5525;42.648;23.368;2023-05-16T03:02:51;94293.53;;;14.09;100.00
10946;BME280;5525;42.648;23.368;2023-05-16T03:05:19;94295.81;;;14.07;100.00
10946;BME280;5525;42.648;23.368;2023-05-16T03:07:46;94302.47;;;14.09;100.00
10946;BME280;5525;42.648;23.368;2023-05-16T03:10:12;94296.31;;;14.12;100.00
10946;BME280;5525;42.648;23.368;2023-05-16T03:12:39;94300.91;;;14.08;100.00
10946;BME280;5525;42.648;23.368;2023-05-16T03:15:07;94301.25;;;14.07;100.00
10946;BME280;5525;42.648;23.368;2023-05-16T03:17:34;94312.63;;;14.12;100.00
10946;BME280;5525;42.648;23.368;2023-05-16T03:20:00;94310.75;;;14.16;100.00
10946;BME280;5525;42.648;23.368;2023-05-16T03:22:30;94306.34;;;14.08;100.00
10946;BME280;5525;42.648;23.368;2023-05-16T03:24:57;94301.84;;;14.16;100.00
10946;BME280;5525;42.648;23.368;2023-05-16T03:27:25;94303.91;;;14.22;100.00
10946;BME280;5525;42.648;23.368;2023-05-16T03:29:52;94307.97;;;14.13;100.00
10946;BME280;5525;42.648;23.368;2023-05-16T03:32:19;94311.41;;;14.10;100.00
10946;BME280;5525;42.648;23.368;2023-05-16T03:34:45;94293.97;;;14.11;100.00
10946;BME280;5525;42.648;23.368;2023-05-16T03:37:12;94295.69;;;14.19;100.00
10946;BME280;5525;42.648;23.368;2023-05-16T03:39:41;94289.47;;;14.18;100.00
10946;BME280;5525;42.648;23.368;2023-05-16T03:42:08;94292.03;;;14.27;100.00
10946;BME280;5525;42.648;23.368;2023-05-16T03:44:35;94288.16;;;14.28;100.00
10946;BME280;5525;42.648;23.368;2023-05-16T03:47:02;94274.59;;;14.28;100.00
10946;BME280;5525;42.648;23.368;2023-05-16T03:49:28;94298.75;;;14.33;100.00
10946;BME280;5525;42.648;23.368;2023-05-16T03:51:55;94292.75;;;14.43;100.00
10946;BME280;5525;42.648;23.368;2023-05-16T03:54:22;94301.47;;;14.33;100.00
10946;BME280;5525;42.648;23.368;2023-05-16T03:56:50;94285.88;;;14.30;100.00
10946;BME280;5525;42.648;23.368;2023-05-16T03:59:17;94291.19;;;14.42;100.00
10946;BME280;5525;42.648;23.368;2023-05-16T04:01:43;94280.94;;;14.35;100.00
10946;BME280;5525;42.648;23.368;2023-05-16T04:04:10;94297.81;;;14.44;100.00
10946;BME280;5525;42.648;23.368;2023-05-16T04:06:37;94297.56;;;14.49;100.00
10946;BME280;5525;42.648;23.368;2023-05-16T04:09:03;94293.75;;;14.54;100.00
10946;BME280;5525;42.648;23.368;2023-05-16T04:11:31;94296.91;;;14.56;100.00
10946;BME280;5525;42.648;23.368;2023-05-16T04:13:59;94302.34;;;14.56;100.00
10946;BME280;5525;42.648;23.368;2023-05-16T04:16:26;94306.13;;;14.51;100.00
10946;BME280;5525;42.648;23.368;2023-05-16T04:18:53;94308.06;;;14.51;100.00
10946;BME280;5525;42.648;23.368;2023-05-16T04:21:20;94320.50;;;14.52;100.00
10946;BME280;5525;42.648;23.368;2023-05-16T04:23:47;94322.50;;;14.55;100.00
10946;BME280;5525;42.648;23.368;2023-05-16T04:26:14;94310.19;;;14.61;100.00
10946;BME280;5525;42.648;23.368;2023-05-16T04:28:40;94308.41;;;14.68;100.00
10946;BME280;5525;42.648;23.368;2023-05-16T04:31:08;94310.78;;;14.70;100.00
10946;BME280;5525;42.648;23.368;2023-05-16T04:33:35;94294.81;;;14.68;100.00
10946;BME280;5525;42.648;23.368;2023-05-16T04:36:03;94288.09;;;14.62;100.00
10946;BME280;5525;42.648;23.368;2023-05-16T04:38:30;94292.06;;;14.65;100.00
10946;BME280;5525;42.648;23.368;2023-05-16T04:40:57;94294.41;;;14.66;100.00
10946;BME280;5525;42.648;23.368;2023-05-16T04:43:24;94288.19;;;14.66;100.00
10946;BME280;5525;42.648;23.368;2023-05-16T04:45:51;94288.34;;;14.73;100.00
10946;BME280;5525;42.648;23.368;2023-05-16T04:48:20;94283.81;;;14.80;100.00
10946;BME280;5525;42.648;23.368;2023-05-16T04:50:46;94301.34;;;14.83;100.00
10946;BME280;5525;42.648;23.368;2023-05-16T04:53:13;94292.09;;;14.87;100.00
10946;BME280;5525;42.648;23.368;2023-05-16T04:55:40;94299.19;;;14.92;100.00
10946;BME280;5525;42.648;23.368;2023-05-16T04:58:07;94297.19;;;14.89;100.00
10946;BME280;5525;42.648;23.368;2023-05-16T05:00:33;94293.03;;;14.95;100.00
10946;BME280;5525;42.648;23.368;2023-05-16T05:03:00;94296.63;;;14.99;100.00
10946;BME280;5525;42.648;23.368;2023-05-16T05:05:28;94296.66;;;15.02;100.00
10946;BME280;5525;42.648;23.368;2023-05-16T05:07:56;94297.69;;;14.94;100.00
10946;BME280;5525;42.648;23.368;2023-05-16T05:10:23;94293.81;;;14.95;100.00
10946;BME280;5525;42.648;23.368;2023-05-16T05:12:51;94306.25;;;14.96;100.00
10946;BME280;5525;42.648;23.368;2023-05-16T05:15:18;94305.91;;;14.98;100.00
10946;BME280;5525;42.648;23.368;2023-05-16T05:17:45;94300.16;;;15.03;100.00
10946;BME280;5525;42.648;23.368;2023-05-16T05:20:12;94304.09;;;15.05;100.00
10946;BME280;5525;42.648;23.368;2023-05-16T05:22:40;94298.59;;;15.02;100.00
10946;BME280;5525;42.648;23.368;2023-05-16T05:25:07;94302.28;;;15.13;100.00
10946;BME280;5525;42.648;23.368;2023-05-16T05:27:34;94307.72;;;15.13;100.00
10946;BME280;5525;42.648;23.368;2023-05-16T05:30:01;94303.09;;;15.13;100.00
10946;BME280;5525;42.648;23.368;2023-05-16T05:32:28;94294.00;;;15.06;100.00
10946;BME280;5525;42.648;23.368;2023-05-16T05:34:55;94289.72;;;15.05;100.00
10946;BME280;5525;42.648;23.368;2023-05-16T05:37:22;94285.06;;;15.05;100.00
10946;BME280;5525;42.648;23.368;2023-05-16T05:39:51;94283.69;;;15.15;100.00
10946;BME280;5525;42.648;23.368;2023-05-16T05:42:17;94278.31;;;15.18;100.00
10946;BME280;5525;42.648;23.368;2023-05-16T05:44:44;94285.81;;;15.25;100.00
10946;BME280;5525;42.648;23.368;2023-05-16T05:47:11;94269.00;;;15.19;100.00
10946;BME280;5525;42.648;23.368;2023-05-16T05:49:38;94265.16;;;15.20;100.00
10946;BME280;5525;42.648;23.368;2023-05-16T05:52:05;94279.66;;;15.28;100.00
10946;BME280;5525;42.648;23.368;2023-05-16T05:54:32;94281.09;;;15.22;100.00
10946;BME280;5525;42.648;23.368;2023-05-16T05:57:00;94278.03;;;15.23;100.00
10946;BME280;5525;42.648;23.368;2023-05-16T05:59:27;94274.69;;;15.34;100.00
10946;BME280;5525;42.648;23.368;2023-05-16T06:01:53;94278.34;;;15.41;100.00
10946;BME280;5525;42.648;23.368;2023-05-16T06:04:20;94266.16;;;15.35;100.00
10946;BME280;5525;42.648;23.368;2023-05-16T06:06:47;94273.16;;;15.36;100.00
10946;BME280;5525;42.648;23.368;2023-05-16T06:09:14;94282.28;;;15.44;100.00
10946;BME280;5525;42.648;23.368;2023-05-16T06:11:41;94279.78;;;15.35;100.00
10946;BME280;5525;42.648;23.368;2023-05-16T06:14:12;94282.66;;;15.42;100.00
10946;BME280;5525;42.648;23.368;2023-05-16T06:16:39;94277.91;;;15.39;100.00
10946;BME280;5525;42.648;23.368;2023-05-16T06:19:06;94274.75;;;15.37;100.00
10946;BME280;5525;42.648;23.368;2023-05-16T06:21:32;94277.41;;;15.34;100.00
10946;BME280;5525;42.648;23.368;2023-05-16T06:23:59;94287.50;;;15.33;100.00
10946;BME280;5525;42.648;23.368;2023-05-16T06:26:26;94294.31;;;15.43;100.00
10946;BME280;5525;42.648;23.368;2023-05-16T06:28:53;94291.34;;;15.51;100.00
10946;BME280;5525;42.648;23.368;2023-05-16T06:31:21;94289.84;;;15.54;100.00
10946;BME280;5525;42.648;23.368;2023-05-16T06:33:47;94277.13;;;15.61;100.00
10946;BME280;5525;42.648;23.368;2023-05-16T06:36:14;94272.78;;;15.57;100.00
10946;BME280;5525;42.648;23.368;2023-05-16T06:38:41;94271.09;;;15.71;100.00
10946;BME280;5525;42.648;23.368;2023-05-16T06:41:07;94273.31;;;15.66;100.00
10946;BME280;5525;42.648;23.368;2023-05-16T06:43:34;94262.78;;;15.64;100.00
10946;BME280;5525;42.648;23.368;2023-05-16T06:46:00;94265.50;;;15.64;100.00
10946;BME280;5525;42.648;23.368;2023-05-16T06:48:29;94253.91;;;15.67;100.00
10946;BME280;5525;42.648;23.368;2023-05-16T06:50:56;94245.66;;;15.64;100.00
10946;BME280;5525;42.648;23.368;2023-05-16T06:53:23;94260.59;;;15.73;100.00
10946;BME280;5525;42.648;23.368;2023-05-16T06:55:50;94245.44;;;15.72;100.00
10946;BME280;5525;42.648;23.368;2023-05-16T06:58:17;94243.91;;;15.75;100.00
10946;BME280;5525;42.648;23.368;2023-05-16T07:00:43;94244.75;;;15.79;100.00
10946;BME280;5525;42.648;23.368;2023-05-16T07:03:10;94258.94;;;15.91;100.00
10946;BME280;5525;42.648;23.368;2023-05-16T07:05:38;94262.56;;;15.99;100.00
10946;BME280;5525;42.648;23.368;2023-05-16T07:08:07;94252.41;;;15.96;100.00
10946;BME280;5525;42.648;23.368;2023-05-16T07:10:34;94250.41;;;15.93;100.00
10946;BME280;5525;42.648;23.368;2023-05-16T07:13:01;94251.69;;;16.02;100.00
10946;BME280;5525;42.648;23.368;2023-05-16T07:15:29;94263.06;;;16.08;100.00
10946;BME280;5525;42.648;23.368;2023-05-16T07:17:55;94256.53;;;16.12;100.00
10946;BME280;5525;42.648;23.368;2023-05-16T07:20:22;94223.03;;;16.12;100.00
10946;BME280;5525;42.648;23.368;2023-05-16T07:22:50;94219.19;;;16.13;100.00
10946;BME280;5525;42.648;23.368;2023-05-16T07:25:17;94219.31;;;16.23;100.00
10946;BME280;5525;42.648;23.368;2023-05-16T07:27:44;94224.78;;;16.27;100.00
10946;BME280;5525;42.648;23.368;2023-05-16T07:30:12;94224.09;;;16.33;100.00
10946;BME280;5525;42.648;23.368;2023-05-16T07:32:39;94224.09;;;16.33;100.00
10946;BME280;5525;42.648;23.368;2023-05-16T07:35:08;94231.16;;;16.38;100.00
10946;BME280;5525;42.648;23.368;2023-05-16T07:37:35;94234.91;;;16.56;100.00
10946;BME280;5525;42.648;23.368;2023-05-16T07:40:04;94233.41;;;16.58;100.00
10946;BME280;5525;42.648;23.368;2023-05-16T07:42:31;94231.06;;;16.57;100.00
10946;BME280;5525;42.648;23.368;2023-05-16T07:44:57;94257.44;;;16.82;100.00
10946;BME280;5525;42.648;23.368;2023-05-16T07:47:24;94258.56;;;16.78;100.00
10946;BME280;5525;42.648;23.368;2023-05-16T07:49:51;94246.50;;;16.79;100.00
10946;BME280;5525;42.648;23.368;2023-05-16T07:52:17;94242.16;;;16.74;100.00
10946;BME280;5525;42.648;23.368;2023-05-16T07:54:45;94233.16;;;16.70;100.00
10946;BME280;5525;42.648;23.368;2023-05-16T07:57:14;94234.50;;;16.83;100.00
10946;BME280;5525;42.648;23.368;2023-05-16T07:59:40;94232.63;;;16.95;100.00
10946;BME280;5525;42.648;23.368;2023-05-16T08:02:07;94234.13;;;16.88;100.00
10946;BME280;5525;42.648;23.368;2023-05-16T08:04:34;94224.69;;;17.16;100.00
10946;BME280;5525;42.648;23.368;2023-05-16T08:07:02;94212.19;;;17.15;100.00
10946;BME280;5525;42.648;23.368;2023-05-16T08:09:28;94211.22;;;17.37;100.00
10946;BME280;5525;42.648;23.368;2023-05-16T08:11:55;94210.25;;;17.55;100.00
10946;BME280;5525;42.648;23.368;2023-05-16T08:14:23;94217.34;;;17.63;100.00
10946;BME280;5525;42.648;23.368;2023-05-16T08:16:50;94209.06;;;17.53;100.00
10946;BME280;5525;42.648;23.368;2023-05-16T08:19:17;94213.09;;;17.73;100.00
10946;BME280;5525;42.648;23.368;2023-05-16T08:21:43;94212.72;;;17.71;100.00
10946;BME280;5525;42.648;23.368;2023-05-16T08:24:10;94212.75;;;17.78;100.00
10946;BME280;5525;42.648;23.368;2023-05-16T08:26:37;94209.75;;;17.97;100.00
10946;BME280;5525;42.648;23.368;2023-05-16T08:29:03;94212.09;;;17.95;100.00
10946;BME280;5525;42.648;23.368;2023-05-16T08:31:32;94214.53;;;18.10;100.00
10946;BME280;5525;42.648;23.368;2023-05-16T08:33:58;94217.75;;;18.26;100.00
10946;BME280;5525;42.648;23.368;2023-05-16T08:36:26;94204.56;;;18.42;100.00
10946;BME280;5525;42.648;23.368;2023-05-16T08:38:54;94217.91;;;18.58;100.00
10946;BME280;5525;42.648;23.368;2023-05-16T08:41:20;94213.22;;;18.55;100.00
10946;BME280;5525;42.648;23.368;2023-05-16T08:43:47;94198.63;;;18.33;100.00
10946;BME280;5525;42.648;23.368;2023-05-16T08:46:15;94217.38;;;18.35;100.00
10946;BME280;5525;42.648;23.368;2023-05-16T08:48:46;94208.66;;;18.91;100.00
10946;BME280;5525;42.648;23.368;2023-05-16T08:51:15;94213.84;;;19.38;100.00
10946;BME280;5525;42.648;23.368;2023-05-16T08:53:44;94208.38;;;19.66;100.00
10946;BME280;5525;42.648;23.368;2023-05-16T08:56:12;94204.00;;;20.32;100.00
10946;BME280;5525;42.648;23.368;2023-05-16T08:58:40;94209.28;;;20.88;100.00
10946;BME280;5525;42.648;23.368;2023-05-16T09:01:07;94211.72;;;21.44;100.00
10946;BME280;5525;42.648;23.368;2023-05-16T09:03:35;94206.13;;;21.00;100.00
10946;BME280;5525;42.648;23.368;2023-05-16T09:06:05;94189.00;;;20.64;100.00
10946;BME280;5525;42.648;23.368;2023-05-16T09:08:32;94195.81;;;20.25;100.00
10946;BME280;5525;42.648;23.368;2023-05-16T09:10:59;94206.78;;;19.96;100.00
10946;BME280;5525;42.648;23.368;2023-05-16T09:13:26;94185.69;;;19.62;100.00
10946;BME280;5525;42.648;23.368;2023-05-16T09:16:12;94194.66;;;19.73;100.00
10946;BME280;5525;42.648;23.368;2023-05-16T09:18:39;94204.84;;;19.44;100.00
10946;BME280;5525;42.648;23.368;2023-05-16T09:21:10;94198.59;;;19.33;100.00
10946;BME280;5525;42.648;23.368;2023-05-16T09:23:37;94196.59;;;19.23;100.00
10946;BME280;5525;42.648;23.368;2023-05-16T09:26:04;94201.69;;;19.21;100.00
10946;BME280;5525;42.648;23.368;2023-05-16T09:28:32;94198.94;;;19.25;100.00
10946;BME280;5525;42.648;23.368;2023-05-16T09:30:59;94193.47;;;19.14;100.00
10946;BME280;5525;42.648;23.368;2023-05-16T09:33:27;94202.44;;;19.11;100.00
10946;BME280;5525;42.648;23.368;2023-05-16T09:35:55;94199.69;;;19.08;100.00
10946;BME280;5525;42.648;23.368;2023-05-16T09:38:24;94190.34;;;19.16;100.00
10946;BME280;5525;42.648;23.368;2023-05-16T09:40:52;94198.94;;;19.18;100.00
10946;BME280;5525;42.648;23.368;2023-05-16T09:43:22;94204.00;;;19.19;100.00
10946;BME280;5525;42.648;23.368;2023-05-16T09:45:48;94203.97;;;19.05;100.00
10946;BME280;5525;42.648;23.368;2023-05-16T09:48:16;94189.91;;;19.03;100.00
10946;BME280;5525;42.648;23.368;2023-05-16T09:50:46;94189.53;;;19.05;100.00
10946;BME280;5525;42.648;23.368;2023-05-16T09:53:15;94188.41;;;19.37;100.00
10946;BME280;5525;42.648;23.368;2023-05-16T09:55:43;94195.06;;;19.61;100.00
10946;BME280;5525;42.648;23.368;2023-05-16T09:58:10;94196.63;;;19.55;100.00
10946;BME280;5525;42.648;23.368;2023-05-16T10:00:36;94177.06;;;19.70;100.00
10946;BME280;5525;42.648;23.368;2023-05-16T10:03:05;94178.56;;;20.06;100.00
10946;BME280;5525;42.648;23.368;2023-05-16T10:05:33;94178.13;;;20.40;100.00
10946;BME280;5525;42.648;23.368;2023-05-16T10:08:02;94175.78;;;20.35;100.00
10946;BME280;5525;42.648;23.368;2023-05-16T10:10:30;94176.88;;;20.58;100.00
10946;BME280;5525;42.648;23.368;2023-05-16T10:13:02;94176.53;;;20.42;100.00
10946;BME280;5525;42.648;23.368;2023-05-16T10:15:30;94185.63;;;20.15;100.00
10946;BME280;5525;42.648;23.368;2023-05-16T10:17:58;94171.94;;;20.07;100.00
10946;BME280;5525;42.648;23.368;2023-05-16T10:20:26;94179.34;;;20.03;100.00
10946;BME280;5525;42.648;23.368;2023-05-16T10:22:54;94197.00;;;20.09;100.00
10946;BME280;5525;42.648;23.368;2023-05-16T10:25:26;94192.31;;;20.17;100.00
10946;BME280;5525;42.648;23.368;2023-05-16T10:27:54;94176.19;;;20.30;100.00
10946;BME280;5525;42.648;23.368;2023-05-16T10:30:22;94178.53;;;20.38;100.00
10946;BME280;5525;42.648;23.368;2023-05-16T10:32:50;94178.50;;;20.45;100.00
10946;BME280;5525;42.648;23.368;2023-05-16T10:35:18;94168.72;;;20.44;100.00
10946;BME280;5525;42.648;23.368;2023-05-16T10:37:46;94163.66;;;20.36;100.00
10946;BME280;5525;42.648;23.368;2023-05-16T10:40:14;94164.44;;;20.33;100.00
10946;BME280;5525;42.648;23.368;2023-05-16T10:42:44;94161.66;;;20.40;100.00
10946;BME280;5525;42.648;23.368;2023-05-16T10:45:20;94141.72;;;20.36;100.00
10946;BME280;5525;42.648;23.368;2023-05-16T10:47:52;94124.00;;;21.23;100.00
10946;BME280;5525;42.648;23.368;2023-05-16T10:50:33;94141.44;;;21.94;100.00
10946;BME280;5525;42.648;23.368;2023-05-16T10:53:14;94133.03;;;21.67;100.00
10946;BME280;5525;42.648;23.368;2023-05-16T10:55:48;94139.38;;;21.61;100.00
10946;BME280;5525;42.648;23.368;2023-05-16T10:58:21;94138.84;;;21.29;100.00
10946;BME280;5525;42.648;23.368;2023-05-16T11:00:48;94145.97;;;21.19;100.00
10946;BME280;5525;42.648;23.368;2023-05-16T11:03:21;94141.91;;;20.76;100.00
10946;BME280;5525;42.648;23.368;2023-05-16T11:05:52;94141.91;;;20.73;100.00
10946;BME280;5525;42.648;23.368;2023-05-16T11:08:19;94124.75;;;20.62;100.00
10946;BME280;5525;42.648;23.368;2023-05-16T11:10:46;94147.13;;;20.50;100.00
10946;BME280;5525;42.648;23.368;2023-05-16T11:13:12;94137.44;;;20.31;100.00
10946;BME280;5525;42.648;23.368;2023-05-16T11:15:43;94148.81;;;20.23;100.00
10946;BME280;5525;42.648;23.368;2023-05-16T11:18:14;94140.97;;;20.21;100.00
10946;BME280;5525;42.648;23.368;2023-05-16T11:20:42;94142.53;;;20.11;100.00
10946;BME280;5525;42.648;23.368;2023-05-16T11:23:23;94138.25;;;20.18;100.00
10946;BME280;5525;42.648;23.368;2023-05-16T11:25:54;94131.59;;;20.19;100.00
10946;BME280;5525;42.648;23.368;2023-05-16T11:28:23;94136.25;;;20.29;100.00
10946;BME280;5525;42.648;23.368;2023-05-16T11:30:52;94123.69;;;20.38;100.00
10946;BME280;5525;42.648;23.368;2023-05-16T11:33:21;94133.47;;;20.39;100.00
10946;BME280;5525;42.648;23.368;2023-05-16T11:36:06;94132.97;;;20.62;100.00
10946;BME280;5525;42.648;23.368;2023-05-16T11:38:33;94134.09;;;20.71;100.00
10946;BME280;5525;42.648;23.368;2023-05-16T11:41:05;94140.38;;;20.72;100.00
10946;BME280;5525;42.648;23.368;2023-05-16T11:43:39;94144.19;;;20.88;100.00
10946;BME280;5525;42.648;23.368;2023-05-16T11:46:10;94142.72;;;20.73;100.00
10946;BME280;5525;42.648;23.368;2023-05-16T11:48:37;94131.25;;;20.92;100.00
10946;BME280;5525;42.648;23.368;2023-05-16T11:51:05;94133.44;;;21.18;100.00
10946;BME280;5525;42.648;23.368;2023-05-16T11:53:32;94141.81;;;21.52;100.00
10946;BME280;5525;42.648;23.368;2023-05-16T11:55:59;94126.44;;;22.02;100.00
10946;BME280;5525;42.648;23.368;2023-05-16T11:58:27;94147.44;;;22.60;100.00
10946;BME280;5525;42.648;23.368;2023-05-16T12:00:54;94148.34;;;22.80;100.00
10946;BME280;5525;42.648;23.368;2023-05-16T12:03:21;94137.72;;;23.08;100.00
10946;BME280;5525;42.648;23.368;2023-05-16T12:05:49;94131.22;;;23.49;97.72
10946;BME280;5525;42.648;23.368;2023-05-16T12:08:19;94109.78;;;24.06;92.78
10946;BME280;5525;42.648;23.368;2023-05-16T12:10:47;94114.56;;;24.02;92.32
10946;BME280;5525;42.648;23.368;2023-05-16T12:13:15;94115.09;;;24.36;90.14
10946;BME280;5525;42.648;23.368;2023-05-16T12:15:41;94113.72;;;24.67;86.83
10946;BME280;5525;42.648;23.368;2023-05-16T12:18:08;94128.75;;;24.82;84.92
10946;BME280;5525;42.648;23.368;2023-05-16T12:20:35;94112.00;;;25.09;83.93
10946;BME280;5525;42.648;23.368;2023-05-16T12:23:02;94117.34;;;25.16;84.67
10946;BME280;5525;42.648;23.368;2023-05-16T12:25:32;94116.19;;;24.81;82.98
10946;BME280;5525;42.648;23.368;2023-05-16T12:28:01;94109.44;;;24.23;84.87
10946;BME280;5525;42.648;23.368;2023-05-16T12:30:29;94089.56;;;24.12;87.15
10946;BME280;5525;42.648;23.368;2023-05-16T12:32:57;94084.41;;;23.68;89.26
10946;BME280;5525;42.648;23.368;2023-05-16T12:35:24;94105.03;;;23.10;93.95
10946;BME280;5525;42.648;23.368;2023-05-16T12:37:51;94102.97;;;22.61;98.44
10946;BME280;5525;42.648;23.368;2023-05-16T12:40:18;94089.31;;;22.21;100.00
10946;BME280;5525;42.648;23.368;2023-05-16T12:42:49;94094.09;;;21.76;100.00
10946;BME280;5525;42.648;23.368;2023-05-16T12:45:17;94092.63;;;21.64;100.00
10946;BME280;5525;42.648;23.368;2023-05-16T12:47:44;94087.28;;;21.47;100.00
10946;BME280;5525;42.648;23.368;2023-05-16T12:50:11;94100.66;;;21.45;100.00
10946;BME280;5525;42.648;23.368;2023-05-16T12:52:48;94100.44;;;21.22;100.00
10946;BME280;5525;42.648;23.368;2023-05-16T12:55:15;94096.94;;;21.21;100.00